Time;durP1;ratioP1;P1;durP2;ratioP2;P2;SDS_P1;SDS_P2;PMS_P1;PMS_P2;Temp;Humidity;BMP_temperature;BMP_pressure;BME280_temperature;BME280_humidity;BME280_pressure;Samples;Min_cycle;Max_cycle;Signal;HPM_P1;HPM_P2
2022/10/25 00:00:07;;;;;;;;;13.00;13.00;25.00;99.90;;;;;;5017633;28;8889;-67
2022/10/25 00:02:40;;;;;;;;;13.00;12.50;24.90;99.90;;;;;;5003712;28;8871;-68
2022/10/25 00:05:16;;;;;;;;;9.00;9.00;24.90;99.90;;;;;;5014981;28;8862;-66
2022/10/25 00:07:49;;;;;;;;;14.00;14.00;24.90;99.90;;;;;;5004263;28;8847;-67
2022/10/25 00:10:20;;;;;;;;;14.00;13.50;24.90;99.90;;;;;;4997928;28;8838;-69
2022/10/25 00:12:58;;;;;;;;;13.25;13.25;24.80;99.90;;;;;;5019182;28;8858;-67
2022/10/25 00:15:29;;;;;;;;;14.00;14.00;24.80;99.90;;;;;;5026244;28;8835;-68
2022/10/25 00:18:02;;;;;;;;;14.75;12.25;24.80;99.90;;;;;;5016684;28;9320;-68
2022/10/25 00:20:37;;;;;;;;;15.00;14.50;24.80;99.90;;;;;;5018199;28;8841;-66
2022/10/25 00:23:08;;;;;;;;;12.25;12.25;24.70;99.90;;;;;;4999828;28;8993;-65
2022/10/25 00:25:39;;;;;;;;;14.50;14.50;24.60;99.90;;;;;;4999497;28;8860;-59
2022/10/25 00:28:13;;;;;;;;;13.00;13.00;24.70;99.90;;;;;;5020446;28;8832;-58
2022/10/25 00:30:45;;;;;;;;;13.00;13.00;24.70;99.90;;;;;;4998022;28;8873;-58
2022/10/25 00:33:16;;;;;;;;;17.00;17.00;24.70;99.90;;;;;;5027319;28;8846;-59
2022/10/25 00:35:47;;;;;;;;;10.75;10.75;24.60;99.90;;;;;;4983277;28;8824;-65
2022/10/25 00:38:22;;;;;;;;;14.50;14.50;24.60;99.90;;;;;;5015593;28;8807;-67
2022/10/25 00:40:54;;;;;;;;;17.50;15.50;24.60;99.90;;;;;;5018037;28;8856;-60
2022/10/25 00:43:40;;;;;;;;;11.50;10.00;24.60;99.90;;;;;;5010019;28;9594;-58
2022/10/25 00:46:27;;;;;;;;;14.00;14.00;24.50;99.90;;;;;;5017190;28;8891;-60
2022/10/25 00:49:08;;;;;;;;;18.00;16.25;24.50;99.90;;;;;;5012580;28;9823;-59
2022/10/25 00:51:45;;;;;;;;;15.75;14.25;24.50;99.90;;;;;;5000924;28;9642;-59
2022/10/25 00:54:19;;;;;;;;;14.25;14.25;24.50;99.90;;;;;;5016974;28;8855;-59
2022/10/25 00:56:51;;;;;;;;;16.00;16.00;24.50;99.90;;;;;;5011112;28;9675;-60
2022/10/25 00:59:24;;;;;;;;;18.00;18.00;24.50;99.90;;;;;;5013040;28;9375;-61
2022/10/25 01:01:55;;;;;;;;;19.50;19.25;24.50;99.90;;;;;;5014741;28;8897;-61
2022/10/25 01:04:31;;;;;;;;;20.25;20.25;24.40;99.90;;;;;;5000163;28;8886;-62
2022/10/25 01:07:04;;;;;;;;;17.50;17.50;24.40;99.90;;;;;;5007412;28;8863;-64
2022/10/25 01:09:37;;;;;;;;;23.25;21.25;24.40;99.90;;;;;;4997502;28;8862;-62
2022/10/25 01:12:07;;;;;;;;;26.00;25.00;24.40;99.90;;;;;;5007041;28;9989;-63
2022/10/25 01:14:45;;;;;;;;;23.50;23.25;24.40;99.90;;;;;;5010009;28;8893;-65
2022/10/25 01:17:35;;;;;;;;;18.75;18.75;24.40;99.90;;;;;;4993557;28;8896;-61
2022/10/25 01:20:31;;;;;;;;;15.25;15.25;24.40;99.90;;;;;;5013373;28;8859;-61
2022/10/25 01:23:40;;;;;;;;;20.50;20.50;24.30;99.90;;;;;;5012068;28;8926;-59
2022/10/25 01:26:15;;;;;;;;;18.75;18.00;24.30;99.90;;;;;;4996544;28;8831;-61
2022/10/25 01:29:12;;;;;;;;;17.00;16.50;24.30;99.90;;;;;;5026072;28;8859;-60
2022/10/25 01:31:53;;;;;;;;;14.75;14.75;24.40;99.90;;;;;;5013526;28;8827;-60
2022/10/25 01:34:48;;;;;;;;;11.25;11.00;24.40;99.90;;;;;;5010431;28;8867;-60
2022/10/25 01:37:25;;;;;;;;;16.00;15.75;24.40;99.90;;;;;;5011743;28;8902;-62
2022/10/25 01:40:22;;;;;;;;;21.75;20.00;24.40;99.90;;;;;;4993475;28;8855;-60
2022/10/25 01:43:09;;;;;;;;;17.50;15.25;24.40;99.90;;;;;;5014180;28;8870;-61
2022/10/25 01:45:48;;;;;;;;;7.75;7.75;24.40;99.90;;;;;;5013418;28;9842;-59
2022/10/25 01:48:29;;;;;;;;;14.75;12.50;24.40;99.90;;;;;;5008915;28;8910;-59
2022/10/25 01:51:09;;;;;;;;;14.25;14.25;24.50;99.90;;;;;;4994793;28;8847;-63
2022/10/25 01:53:51;;;;;;;;;15.50;15.50;24.50;99.90;;;;;;5005297;28;8835;-65
2022/10/25 01:56:33;;;;;;;;;15.50;14.75;24.50;99.90;;;;;;5011606;28;8871;-60
2022/10/25 01:59:40;;;;;;;;;7.00;7.00;24.60;99.90;;;;;;4995786;28;8850;-58
2022/10/25 02:02:39;;;;;;;;;0.50;0.50;24.10;99.90;;;;;;4989332;28;8847;-65
2022/10/25 02:05:45;;;;;;;;;1.00;1.00;21.50;99.90;;;;;;5008630;28;8951;-67
2022/10/25 02:08:22;;;;;;;;;3.00;1.50;20.20;99.90;;;;;;4997109;28;8866;-66
2022/10/25 02:10:57;;;;;;;;;0.50;0.50;20.00;99.90;;;;;;4995814;28;9764;-62
2022/10/25 02:13:42;;;;;;;;;1.50;1.50;19.70;99.90;;;;;;5008773;28;8897;-75
2022/10/25 02:16:21;;;;;;;;;1.25;1.25;19.60;99.90;;;;;;5008438;28;8839;-63
2022/10/25 02:18:57;;;;;;;;;2.25;0.75;19.70;99.90;;;;;;4997071;28;8833;-63
2022/10/25 02:21:33;;;;;;;;;2.75;1.00;19.70;99.90;;;;;;5008444;28;8905;-61
2022/10/25 02:24:11;;;;;;;;;1.00;1.00;19.80;99.90;;;;;;5012877;28;8848;-61
2022/10/25 02:26:45;;;;;;;;;0.00;0.00;20.20;99.90;;;;;;5015009;28;9415;-69
2022/10/25 02:29:16;;;;;;;;;1.00;1.00;20.20;99.90;;;;;;5012704;28;8840;-68
2022/10/25 02:31:48;;;;;;;;;2.00;0.50;20.20;99.90;;;;;;5009550;28;8827;-70
2022/10/25 02:34:19;;;;;;;;;0.00;0.00;20.00;99.90;;;;;;5023747;28;8853;-69
2022/10/25 02:36:52;;;;;;;;;0.25;0.25;20.10;99.90;;;;;;5014148;28;8855;-61
2022/10/25 02:39:24;;;;;;;;;1.00;1.00;19.60;99.90;;;;;;5013576;28;8866;-62
2022/10/25 02:42:01;;;;;;;;;0.50;0.50;20.00;99.90;;;;;;5010161;28;8859;-69
2022/10/25 02:44:33;;;;;;;;;1.00;1.00;20.50;99.90;;;;;;5013197;28;8851;-69
2022/10/25 02:47:08;;;;;;;;;1.00;1.00;20.40;99.90;;;;;;4990317;28;8917;-60
2022/10/25 02:49:39;;;;;;;;;0.75;0.75;19.80;99.90;;;;;;5014062;28;8874;-61
2022/10/25 02:52:09;;;;;;;;;2.00;1.25;20.20;99.90;;;;;;5011384;28;8882;-69
2022/10/25 02:54:40;;;;;;;;;1.00;1.00;20.20;99.90;;;;;;5012978;28;8894;-68
2022/10/25 02:57:10;;;;;;;;;0.00;0.00;20.20;99.90;;;;;;5012157;28;8891;-68
2022/10/25 02:59:42;;;;;;;;;2.00;2.00;20.10;99.90;;;;;;5011229;28;8843;-68
2022/10/25 03:02:12;;;;;;;;;2.25;2.25;20.40;99.90;;;;;;5017295;28;9009;-67
2022/10/25 03:04:43;;;;;;;;;3.00;3.00;20.50;99.90;;;;;;5018752;28;9571;-69
2022/10/25 03:07:13;;;;;;;;;5.00;3.50;20.60;99.90;;;;;;5015161;28;8843;-64
2022/10/25 03:09:46;;;;;;;;;4.25;3.00;20.30;99.90;;;;;;5002934;28;8858;-62
2022/10/25 03:12:17;;;;;;;;;5.75;5.75;20.20;99.90;;;;;;5016236;28;8836;-67
2022/10/25 03:14:48;;;;;;;;;9.75;9.75;20.40;99.90;;;;;;5015156;28;8884;-66
2022/10/25 03:17:19;;;;;;;;;13.25;13.25;20.40;99.90;;;;;;5019501;28;8874;-61
2022/10/25 03:19:50;;;;;;;;;12.50;12.50;20.50;99.90;;;;;;5012589;28;8857;-60
2022/10/25 03:22:22;;;;;;;;;7.50;7.50;20.50;99.90;;;;;;5012840;28;8889;-69
2022/10/25 03:24:54;;;;;;;;;4.00;4.00;20.40;99.90;;;;;;5016519;28;8874;-68
2022/10/25 03:27:25;;;;;;;;;2.00;2.00;20.30;99.90;;;;;;4979194;28;8855;-61
2022/10/25 03:29:55;;;;;;;;;1.75;1.00;20.10;99.90;;;;;;5013337;28;9546;-61
2022/10/25 03:32:25;;;;;;;;;1.25;1.00;20.20;99.90;;;;;;4997978;28;8863;-63
2022/10/25 03:34:54;;;;;;;;;1.00;1.00;20.30;99.90;;;;;;5017129;28;8832;-61
2022/10/25 03:37:26;;;;;;;;;1.00;1.00;20.20;99.90;;;;;;5010279;28;8834;-74
2022/10/25 03:39:57;;;;;;;;;1.00;1.00;20.20;99.90;;;;;;5014988;28;8840;-70
2022/10/25 03:42:28;;;;;;;;;1.00;1.00;20.20;99.90;;;;;;4994659;28;8823;-67
2022/10/25 03:44:59;;;;;;;;;1.75;1.00;20.10;99.90;;;;;;5012762;28;8905;-66
2022/10/25 03:47:29;;;;;;;;;1.00;1.00;20.20;99.90;;;;;;5013412;28;8855;-61
2022/10/25 03:50:00;;;;;;;;;0.00;0.00;20.40;99.90;;;;;;4994865;28;8878;-62
2022/10/25 03:52:33;;;;;;;;;2.00;0.75;20.20;99.90;;;;;;5015497;28;8828;-69
2022/10/25 03:55:06;;;;;;;;;2.00;0.75;20.10;99.90;;;;;;5013262;28;8858;-63
2022/10/25 03:57:42;;;;;;;;;2.00;1.00;19.70;99.90;;;;;;5013466;28;9585;-62
2022/10/25 04:00:14;;;;;;;;;1.00;1.00;19.70;99.90;;;;;;5011218;28;9591;-72
2022/10/25 04:02:46;;;;;;;;;1.00;1.00;19.90;99.90;;;;;;5012431;28;9635;-70
2022/10/25 04:05:18;;;;;;;;;1.00;1.00;20.00;99.90;;;;;;5015366;28;8831;-71
2022/10/25 04:07:49;;;;;;;;;0.00;0.00;19.90;99.90;;;;;;5014123;28;9014;-70
2022/10/25 04:10:19;;;;;;;;;2.75;1.75;19.80;99.90;;;;;;5011700;28;8835;-68
2022/10/25 04:12:51;;;;;;;;;1.75;1.00;19.90;99.90;;;;;;5014847;28;8831;-69
2022/10/25 04:15:27;;;;;;;;;1.00;1.00;19.70;99.90;;;;;;5012349;28;8859;-61
2022/10/25 04:17:59;;;;;;;;;0.25;0.25;19.70;99.90;;;;;;5012039;28;8870;-62
2022/10/25 04:20:34;;;;;;;;;1.00;1.00;19.70;99.90;;;;;;4986728;28;8968;-62
2022/10/25 04:23:08;;;;;;;;;0.00;0.00;19.60;99.90;;;;;;5009262;28;9594;-62
2022/10/25 04:25:42;;;;;;;;;0.50;0.50;19.70;99.90;;;;;;5016210;28;8828;-62
2022/10/25 04:28:13;;;;;;;;;0.50;0.00;19.60;99.90;;;;;;5022428;28;8827;-61
2022/10/25 04:30:46;;;;;;;;;0.00;0.00;19.70;99.90;;;;;;5011994;28;8883;-62
2022/10/25 04:33:17;;;;;;;;;0.00;0.00;19.80;99.90;;;;;;5008077;28;8842;-62
2022/10/25 04:35:55;;;;;;;;;0.75;0.75;19.80;99.90;;;;;;4994845;28;8854;-61
2022/10/25 04:38:25;;;;;;;;;0.00;0.00;19.80;99.90;;;;;;5013964;28;8867;-61
2022/10/25 04:40:57;;;;;;;;;0.00;0.00;19.70;99.90;;;;;;4979845;28;9176;-67
2022/10/25 04:43:31;;;;;;;;;1.00;1.00;19.60;99.90;;;;;;5032256;28;8840;-68
2022/10/25 04:48:57;;;;;;;;;0.00;0.00;19.50;99.90;;;;;;5012007;28;9029;-61
2022/10/25 04:51:28;;;;;;;;;0.00;0.00;19.60;99.90;;;;;;5007248;28;8877;-62
2022/10/25 04:54:00;;;;;;;;;0.00;0.00;19.40;99.90;;;;;;4980624;28;9301;-61
2022/10/25 04:56:30;;;;;;;;;0.00;0.00;19.60;99.90;;;;;;5018253;28;8832;-68
2022/10/25 04:59:03;;;;;;;;;0.00;0.00;19.50;99.90;;;;;;5011437;28;9561;-68
2022/10/25 05:01:33;;;;;;;;;0.00;0.00;19.60;99.90;;;;;;4999407;28;8840;-68
2022/10/25 05:04:05;;;;;;;;;0.00;0.00;19.30;99.90;;;;;;5013598;28;9566;-68
2022/10/25 05:06:38;;;;;;;;;0.00;0.00;19.30;99.90;;;;;;5014513;28;8876;-61
2022/10/25 05:09:12;;;;;;;;;0.00;0.00;19.30;99.90;;;;;;5006184;28;8850;-61
2022/10/25 05:11:44;;;;;;;;;2.00;1.00;19.10;99.90;;;;;;5012269;28;8827;-62
2022/10/25 05:14:19;;;;;;;;;0.00;0.00;19.10;99.90;;;;;;5000290;28;8843;-63
2022/10/25 05:16:52;;;;;;;;;0.00;0.00;19.20;99.90;;;;;;4998246;28;8884;-68
2022/10/25 05:19:22;;;;;;;;;0.75;0.25;19.10;99.90;;;;;;5016287;28;8848;-67
2022/10/25 05:21:52;;;;;;;;;0.00;0.00;19.10;99.90;;;;;;5013880;28;8856;-68
2022/10/25 05:24:24;;;;;;;;;0.00;0.00;19.00;99.90;;;;;;5026538;28;9394;-61
2022/10/25 05:26:56;;;;;;;;;1.00;1.00;19.10;99.90;;;;;;5029893;28;8855;-61
2022/10/25 05:29:25;;;;;;;;;0.00;0.00;18.90;99.90;;;;;;5013144;28;8832;-62
2022/10/25 05:31:57;;;;;;;;;1.00;0.00;18.80;99.90;;;;;;5016897;28;8996;-61
2022/10/25 05:34:29;;;;;;;;;0.00;0.00;19.00;99.90;;;;;;4981712;28;8840;-61
2022/10/25 05:37:03;;;;;;;;;0.00;0.00;18.90;99.90;;;;;;5011929;28;9386;-68
2022/10/25 05:39:33;;;;;;;;;0.00;0.00;18.80;99.90;;;;;;5013596;28;8835;-68
2022/10/25 05:42:07;;;;;;;;;0.00;0.00;18.90;99.90;;;;;;5024947;28;8887;-61
2022/10/25 05:44:38;;;;;;;;;0.00;0.00;18.90;99.90;;;;;;5004867;28;8856;-61
2022/10/25 05:47:12;;;;;;;;;1.00;0.00;18.90;99.90;;;;;;5011829;28;8841;-67
2022/10/25 05:49:41;;;;;;;;;0.00;0.00;18.80;99.90;;;;;;5013477;28;8860;-67
2022/10/25 05:52:14;;;;;;;;;0.00;0.00;18.70;99.90;;;;;;5011854;28;9615;-61
2022/10/25 05:54:45;;;;;;;;;1.50;0.00;18.80;99.90;;;;;;4997066;28;8843;-62
2022/10/25 05:57:16;;;;;;;;;0.00;0.00;18.80;99.90;;;;;;5010102;28;8869;-61
2022/10/25 05:59:49;;;;;;;;;2.25;0.00;18.80;99.90;;;;;;5011406;28;8861;-61
2022/10/25 06:02:20;;;;;;;;;0.00;0.00;18.80;99.90;;;;;;4997197;28;8878;-61
2022/10/25 06:04:51;;;;;;;;;0.00;0.00;18.80;99.90;;;;;;4996106;28;8870;-60
2022/10/25 06:07:22;;;;;;;;;1.00;0.00;18.80;99.90;;;;;;5011418;28;8873;-61
2022/10/25 06:09:55;;;;;;;;;0.00;0.00;18.80;99.90;;;;;;5016384;28;8893;-61
2022/10/25 06:12:25;;;;;;;;;0.00;0.00;18.90;99.90;;;;;;4995070;28;8840;-62
2022/10/25 06:14:59;;;;;;;;;0.00;0.00;18.90;99.90;;;;;;5013903;28;10574;-61
2022/10/25 06:17:30;;;;;;;;;0.00;0.00;18.80;99.90;;;;;;5011265;28;8852;-62
2022/10/25 06:20:02;;;;;;;;;0.00;0.00;18.80;99.90;;;;;;5010379;28;9221;-67
2022/10/25 06:22:34;;;;;;;;;0.00;0.00;18.90;99.90;;;;;;4979127;28;8815;-66
2022/10/25 06:25:06;;;;;;;;;0.25;0.00;18.90;99.90;;;;;;4996317;28;8831;-67
2022/10/25 06:27:38;;;;;;;;;2.00;0.00;18.80;99.90;;;;;;5012503;28;8807;-66
2022/10/25 06:30:10;;;;;;;;;0.00;0.00;18.80;99.90;;;;;;5007318;28;8854;-61
2022/10/25 06:32:40;;;;;;;;;0.00;0.00;19.00;99.90;;;;;;5015643;28;8844;-61
2022/10/25 06:35:14;;;;;;;;;0.00;0.00;19.10;99.90;;;;;;4998130;28;8857;-68
2022/10/25 06:37:45;;;;;;;;;1.00;0.00;18.90;99.90;;;;;;5000206;28;8839;-61
2022/10/25 06:40:17;;;;;;;;;0.00;0.00;18.90;99.90;;;;;;5016903;28;9524;-67
2022/10/25 06:42:56;;;;;;;;;0.00;0.00;18.90;99.90;;;;;;4998343;28;8839;-66
2022/10/25 06:45:29;;;;;;;;;1.00;0.00;19.00;99.90;;;;;;5018102;28;9419;-60
2022/10/25 06:48:00;;;;;;;;;0.00;0.00;18.90;99.90;;;;;;5017271;28;8865;-60
2022/10/25 06:50:33;;;;;;;;;0.00;0.00;18.90;99.90;;;;;;5017162;28;8974;-66
2022/10/25 06:53:06;;;;;;;;;0.00;0.00;18.90;99.90;;;;;;5002392;28;8836;-67
2022/10/25 06:55:37;;;;;;;;;0.50;0.00;19.00;99.90;;;;;;4999662;28;8827;-67
2022/10/25 06:58:10;;;;;;;;;0.00;0.00;18.90;99.90;;;;;;5013830;28;8831;-67
2022/10/25 07:00:43;;;;;;;;;0.00;0.00;18.90;99.90;;;;;;4966949;28;8875;-61
2022/10/25 07:03:17;;;;;;;;;0.00;0.00;18.80;99.90;;;;;;5012585;28;8944;-61
2022/10/25 07:05:48;;;;;;;;;0.00;0.00;18.80;99.90;;;;;;5033743;28;8847;-61
2022/10/25 07:08:21;;;;;;;;;0.00;0.00;18.80;99.90;;;;;;4981846;28;8860;-60
2022/10/25 07:10:53;;;;;;;;;0.00;0.00;18.90;99.90;;;;;;5017933;28;8950;-62
2022/10/25 07:13:28;;;;;;;;;0.00;0.00;19.00;99.90;;;;;;4999596;28;9110;-60
2022/10/25 07:16:04;;;;;;;;;0.00;0.00;18.90;99.90;;;;;;5031010;28;8866;-67
2022/10/25 07:18:35;;;;;;;;;0.00;0.00;18.90;99.90;;;;;;5012993;28;9528;-66
2022/10/25 07:21:13;;;;;;;;;0.00;0.00;18.70;99.90;;;;;;5014605;28;8933;-66
2022/10/25 07:23:44;;;;;;;;;0.00;0.00;18.80;99.90;;;;;;5019736;28;8983;-66
2022/10/25 07:26:18;;;;;;;;;0.00;0.00;18.80;99.90;;;;;;5015472;28;9741;-67
2022/10/25 07:28:51;;;;;;;;;0.00;0.00;18.70;99.90;;;;;;5012990;28;8877;-66
2022/10/25 07:31:34;;;;;;;;;0.00;0.00;18.80;99.90;;;;;;5003102;28;9351;-67
2022/10/25 07:34:05;;;;;;;;;0.00;0.00;18.80;99.90;;;;;;5031232;28;8939;-65
2022/10/25 07:36:36;;;;;;;;;0.00;0.00;18.90;99.90;;;;;;5001775;28;8851;-60
2022/10/25 07:39:13;;;;;;;;;0.00;0.00;18.80;99.90;;;;;;5012981;28;8871;-60
2022/10/25 07:41:42;;;;;;;;;0.00;0.00;18.70;99.90;;;;;;5012569;28;8828;-61
2022/10/25 07:44:12;;;;;;;;;0.00;0.00;18.60;99.90;;;;;;4996304;28;8871;-61
2022/10/25 07:46:48;;;;;;;;;0.00;0.00;18.70;99.90;;;;;;4983220;28;9666;-66
2022/10/25 07:49:20;;;;;;;;;0.00;0.00;18.60;99.90;;;;;;5015308;28;8912;-68
2022/10/25 07:51:49;;;;;;;;;0.00;0.00;18.60;99.90;;;;;;5028348;28;9630;-60
2022/10/25 07:54:22;;;;;;;;;0.00;0.00;18.50;99.90;;;;;;5014861;28;8965;-60
2022/10/25 07:56:54;;;;;;;;;0.00;0.00;18.50;99.90;;;;;;4999487;28;9008;-60
2022/10/25 07:59:25;;;;;;;;;0.00;0.00;18.40;99.90;;;;;;5012525;28;8929;-61
2022/10/25 08:01:57;;;;;;;;;0.00;0.00;18.60;99.90;;;;;;5010636;28;8829;-66
2022/10/25 08:04:31;;;;;;;;;0.00;0.00;18.60;99.90;;;;;;5014077;28;8993;-66
2022/10/25 08:07:02;;;;;;;;;0.00;0.00;18.50;99.90;;;;;;5000455;28;8934;-61
2022/10/25 08:09:31;;;;;;;;;0.00;0.00;18.50;99.90;;;;;;4996713;28;9099;-61
2022/10/25 08:12:07;;;;;;;;;0.00;0.00;18.40;99.90;;;;;;5013564;28;9079;-65
2022/10/25 08:14:38;;;;;;;;;0.00;0.00;18.40;99.90;;;;;;4996619;28;9095;-66
2022/10/25 08:17:11;;;;;;;;;0.00;0.00;18.40;99.90;;;;;;4997121;28;9112;-67
2022/10/25 08:19:42;;;;;;;;;0.00;0.00;18.50;99.90;;;;;;5017259;28;9024;-67
2022/10/25 08:25:18;;;;;;;;;0.00;0.00;18.40;99.90;;;;;;5009193;28;8924;-61
2022/10/25 08:27:51;;;;;;;;;0.00;0.00;18.20;99.90;;;;;;4992715;28;9090;-61
2022/10/25 08:30:20;;;;;;;;;0.00;0.00;18.20;99.90;;;;;;4995483;28;9029;-66
2022/10/25 08:32:53;;;;;;;;;0.00;0.00;18.10;99.90;;;;;;5015897;28;9087;-67
2022/10/25 08:35:32;;;;;;;;;0.00;0.00;18.10;99.90;;;;;;5012453;28;9222;-67
2022/10/25 08:38:04;;;;;;;;;0.00;0.00;18.20;99.90;;;;;;5013585;28;9250;-66
2022/10/25 08:41:04;;;;;;;;;0.00;0.00;18.20;99.90;;;;;;5024505;28;9260;-67
2022/10/25 08:44:07;;;;;;;;;0.00;0.00;18.20;99.90;;;;;;4996391;28;9342;-66
2022/10/25 08:47:10;;;;;;;;;0.00;0.00;18.10;99.90;;;;;;5007675;28;9186;-61
2022/10/25 08:50:18;;;;;;;;;0.00;0.00;18.10;99.90;;;;;;5015463;28;9263;-60
2022/10/25 08:53:00;;;;;;;;;0.00;0.00;18.00;99.90;;;;;;5016014;28;9162;-61
2022/10/25 08:55:35;;;;;;;;;0.00;0.00;17.90;99.90;;;;;;5017021;28;9248;-67
2022/10/25 08:58:57;;;;;;;;;0.00;0.00;17.70;99.90;;;;;;5015628;28;9155;-66
2022/10/25 09:01:38;;;;;;;;;0.00;0.00;17.70;99.90;;;;;;5003761;28;9232;-66
2022/10/25 09:04:10;;;;;;;;;0.00;0.00;17.60;99.90;;;;;;5001159;28;9325;-67
2022/10/25 09:06:50;;;;;;;;;0.00;0.00;17.50;99.90;;;;;;4993387;28;9875;-66
2022/10/25 09:09:48;;;;;;;;;0.00;0.00;17.50;99.90;;;;;;4996146;28;9462;-67
2022/10/25 09:12:42;;;;;;;;;1.00;1.00;17.40;99.90;;;;;;4982678;28;9778;-61
2022/10/25 09:15:20;;;;;;;;;1.75;1.75;17.30;99.90;;;;;;4998376;28;10123;-66
2022/10/25 09:17:54;;;;;;;;;13.50;13.50;17.30;99.90;;;;;;4995394;28;10325;-67
2022/10/25 09:20:40;;;;;;;;;7.00;7.00;17.20;99.90;;;;;;4994615;28;10896;-68
2022/10/25 09:23:30;;;;;;;;;1.00;1.00;17.20;99.90;;;;;;4998576;28;11374;-66
2022/10/25 09:26:46;;;;;;;;;0.00;0.00;17.20;99.90;;;;;;5005329;28;10732;-61
2022/10/25 09:29:28;;;;;;;;;0.00;0.00;17.10;99.90;;;;;;4992621;28;9745;-61
2022/10/25 09:32:02;;;;;;;;;0.50;0.00;17.20;99.90;;;;;;4975247;28;9907;-67
2022/10/25 09:34:37;;;;;;;;;0.00;0.00;16.90;99.90;;;;;;4995084;28;10136;-67
2022/10/25 09:37:26;;;;;;;;;0.00;0.00;16.80;99.90;;;;;;4993477;28;10198;-60
2022/10/25 09:40:03;;;;;;;;;0.00;0.00;16.70;99.90;;;;;;4992119;28;10511;-61
2022/10/25 09:42:45;;;;;;;;;0.00;0.00;16.80;99.90;;;;;;4982949;28;11067;-59
2022/10/25 09:45:42;;;;;;;;;0.00;0.00;16.60;99.90;;;;;;4994267;28;11577;-61
2022/10/25 09:48:45;;;;;;;;;0.00;0.00;16.60;99.90;;;;;;4993766;28;11957;-61
2022/10/25 09:51:18;;;;;;;;;7.25;6.25;16.50;99.90;;;;;;4988958;28;11539;-66
2022/10/25 09:53:51;;;;;;;;;2.25;2.25;16.50;99.90;;;;;;4993060;28;11525;-67
2022/10/25 09:56:22;;;;;;;;;1.00;0.00;16.70;99.90;;;;;;4989058;28;11587;-60
2022/10/25 09:58:54;;;;;;;;;1.00;0.00;16.70;99.90;;;;;;4989871;28;11468;-60
2022/10/25 10:01:30;;;;;;;;;0.00;0.00;16.80;99.90;;;;;;5001741;28;10278;-66
2022/10/25 10:04:23;;;;;;;;;0.00;0.00;16.80;99.90;;;;;;4992921;28;10089;-67
2022/10/25 10:06:58;;;;;;;;;0.00;0.00;16.60;99.90;;;;;;5008342;28;10561;-61
2022/10/25 10:09:34;;;;;;;;;0.00;0.00;16.50;99.90;;;;;;5013486;28;11019;-60
2022/10/25 10:12:06;;;;;;;;;0.00;0.00;16.50;99.90;;;;;;5013146;28;11514;-61
2022/10/25 10:14:51;;;;;;;;;0.00;0.00;16.40;99.90;;;;;;4995205;28;11484;-61
2022/10/25 10:17:22;;;;;;;;;2.25;2.25;16.50;99.90;;;;;;4994406;28;11410;-60
2022/10/25 10:20:16;;;;;;;;;0.00;0.00;16.30;99.90;;;;;;5014933;28;11430;-61
2022/10/25 10:22:55;;;;;;;;;2.25;2.25;16.30;99.90;;;;;;4992100;28;11131;-67
2022/10/25 10:25:28;;;;;;;;;8.75;8.75;16.20;99.90;;;;;;5011727;28;12176;-67
2022/10/25 10:28:01;;;;;;;;;43.33;38.00;16.10;99.90;;;;;;5018378;28;11421;-68
2022/10/25 10:30:37;;;;;;;;;50.33;43.00;15.80;99.90;;;;;;5016889;28;8970;-67
2022/10/25 10:33:16;;;;;;;;;46.00;40.00;16.10;99.90;;;;;;4997058;28;8866;-66
2022/10/25 10:35:46;;;;;;;;;41.33;36.67;16.00;99.90;;;;;;5012381;28;8852;-68
2022/10/25 10:38:28;;;;;;;;;9.00;9.00;16.10;99.90;;;;;;5013174;28;8882;-68
2022/10/25 10:41:32;;;;;;;;;3.50;3.50;16.20;99.90;;;;;;5014358;28;11429;-66
2022/10/25 10:44:15;;;;;;;;;6.50;5.00;16.20;99.90;;;;;;4990071;28;11429;-66
2022/10/25 10:46:49;;;;;;;;;6.25;6.25;16.10;99.90;;;;;;4983750;28;11433;-61
2022/10/25 10:49:27;;;;;;;;;0.00;0.00;16.30;99.90;;;;;;5004697;28;11456;-60
2022/10/25 10:51:56;;;;;;;;;0.00;0.00;16.10;99.90;;;;;;5011557;28;11403;-67
2022/10/25 10:54:36;;;;;;;;;0.00;0.00;16.00;99.90;;;;;;5013756;28;10852;-66
2022/10/25 10:57:21;;;;;;;;;0.00;0.00;15.90;99.90;;;;;;4995056;28;10347;-61
2022/10/25 10:59:55;;;;;;;;;40.67;36.33;15.50;99.90;;;;;;5009187;28;10708;-59
2022/10/25 11:02:36;;;;;;;;;58.33;49.00;15.20;99.90;;;;;;4995055;28;8884;-68
2022/10/25 11:05:20;;;;;;;;;66.67;56.33;15.30;99.90;;;;;;5009117;28;8846;-67
2022/10/25 11:08:11;;;;;;;;;24.00;22.50;15.40;99.90;;;;;;4995658;28;8908;-67
2022/10/25 11:10:40;;;;;;;;;0.00;0.00;15.30;99.90;;;;;;5011728;28;11475;-61
2022/10/25 11:13:18;;;;;;;;;0.00;0.00;14.90;99.90;;;;;;5013442;28;10373;-61
2022/10/25 11:16:06;;;;;;;;;0.00;0.00;14.90;99.90;;;;;;5010657;28;10588;-61
2022/10/25 11:19:13;;;;;;;;;0.00;0.00;14.90;99.90;;;;;;5011867;28;10301;-61
2022/10/25 11:22:17;;;;;;;;;0.00;0.00;14.70;99.90;;;;;;4994494;28;10798;-61
2022/10/25 11:24:59;;;;;;;;;0.00;0.00;14.50;99.90;;;;;;5013718;28;10739;-60
2022/10/25 11:27:56;;;;;;;;;0.00;0.00;14.60;99.90;;;;;;5010961;28;12338;-59
2022/10/25 11:30:52;;;;;;;;;0.00;0.00;14.80;99.90;;;;;;4998608;28;10475;-69
2022/10/25 11:33:43;;;;;;;;;0.00;0.00;14.70;99.90;;;;;;5018979;28;11233;-67
2022/10/25 11:36:39;;;;;;;;;0.00;0.00;15.00;99.90;;;;;;5019086;28;11352;-62
2022/10/25 11:39:18;;;;;;;;;0.00;0.00;14.90;99.90;;;;;;5010268;28;10353;-61
2022/10/25 11:41:57;;;;;;;;;0.00;0.00;14.90;99.90;;;;;;5015477;28;10348;-68
2022/10/25 11:45:05;;;;;;;;;0.00;0.00;15.00;99.90;;;;;;5017540;28;10219;-69
2022/10/25 11:48:17;;;;;;;;;0.00;0.00;14.90;99.90;;;;;;4988300;28;10269;-61
2022/10/25 11:51:25;;;;;;;;;0.00;0.00;15.00;99.90;;;;;;5014269;28;10319;-60
2022/10/25 11:54:43;;;;;;;;;0.00;0.00;14.60;99.90;;;;;;5011849;28;10256;-61
2022/10/25 11:57:38;;;;;;;;;0.00;0.00;14.70;99.90;;;;;;4986307;28;10236;-60
2022/10/25 12:00:20;;;;;;;;;0.00;0.00;14.70;99.90;;;;;;4989434;28;10542;-69
2022/10/25 12:03:15;;;;;;;;;0.00;0.00;14.70;99.90;;;;;;5006770;28;10243;-66
2022/10/25 12:06:09;;;;;;;;;0.00;0.00;15.00;99.90;;;;;;5014801;28;10387;-70
2022/10/25 12:09:02;;;;;;;;;0.00;0.00;14.80;99.90;;;;;;5013777;28;10350;-67
2022/10/25 12:12:02;;;;;;;;;0.00;0.00;14.70;99.90;;;;;;5014883;28;10184;-60
2022/10/25 12:14:44;;;;;;;;;0.00;0.00;14.50;99.90;;;;;;5001004;28;10568;-60
2022/10/25 12:17:30;;;;;;;;;0.00;0.00;14.70;99.90;;;;;;5013535;28;10494;-68
2022/10/25 12:20:07;;;;;;;;;0.00;0.00;14.80;99.90;;;;;;4996229;28;10429;-60
2022/10/25 12:22:44;;;;;;;;;0.00;0.00;14.60;99.90;;;;;;5011341;28;10891;-60
2022/10/25 12:25:41;;;;;;;;;0.00;0.00;14.50;99.90;;;;;;5016483;28;10495;-69
2022/10/25 12:28:27;;;;;;;;;0.00;0.00;14.20;99.90;;;;;;4999235;28;10406;-60
2022/10/25 12:31:20;;;;;;;;;0.00;0.00;14.30;99.90;;;;;;5009910;28;11307;-68
2022/10/25 12:34:08;;;;;;;;;0.00;0.00;14.20;99.90;;;;;;5016186;28;10463;-60
2022/10/25 12:36:42;;;;;;;;;0.00;0.00;14.50;99.90;;;;;;5016887;28;11158;-61
2022/10/25 12:39:23;;;;;;;;;0.00;0.00;14.50;99.90;;;;;;4999720;28;10479;-61
2022/10/25 12:42:02;;;;;;;;;0.00;0.00;14.40;99.90;;;;;;4987420;28;10425;-68
2022/10/25 12:45:08;;;;;;;;;0.00;0.00;14.50;99.90;;;;;;5016878;28;10653;-69
2022/10/25 12:47:54;;;;;;;;;0.00;0.00;14.20;99.90;;;;;;5016642;28;10371;-67
2022/10/25 12:50:27;;;;;;;;;0.00;0.00;14.20;99.90;;;;;;5019964;28;10954;-69
2022/10/25 12:53:44;;;;;;;;;0.00;0.00;14.50;99.90;;;;;;5015158;28;10526;-72
2022/10/25 12:56:35;;;;;;;;;0.00;0.00;14.40;99.90;;;;;;5013872;28;11436;-60
2022/10/25 12:59:30;;;;;;;;;0.00;0.00;14.60;99.90;;;;;;5011873;28;10552;-60
2022/10/25 13:02:21;;;;;;;;;0.00;0.00;14.40;99.90;;;;;;5011585;28;11235;-61
2022/10/25 13:05:31;;;;;;;;;0.00;0.00;14.40;99.90;;;;;;5007278;28;10536;-61
2022/10/25 13:08:06;;;;;;;;;0.00;0.00;14.50;99.90;;;;;;4977892;28;11324;-70
2022/10/25 13:10:49;;;;;;;;;0.00;0.00;14.50;99.90;;;;;;4980618;28;10293;-60
2022/10/25 13:13:24;;;;;;;;;1.00;0.00;14.30;99.90;;;;;;4970158;28;10624;-61
2022/10/25 13:16:00;;;;;;;;;0.00;0.00;14.20;99.90;;;;;;4974048;28;11180;-60
2022/10/25 13:18:34;;;;;;;;;0.00;0.00;14.20;99.90;;;;;;4973282;28;10630;-60
2022/10/25 13:21:12;;;;;;;;;0.00;0.00;13.90;99.90;;;;;;4975877;28;10798;-61
2022/10/25 13:23:45;;;;;;;;;0.00;0.00;14.10;99.90;;;;;;4976534;28;10653;-60
2022/10/25 13:26:24;;;;;;;;;0.00;0.00;14.30;99.90;;;;;;4974074;28;10682;-70
2022/10/25 13:28:59;;;;;;;;;0.00;0.00;14.40;99.90;;;;;;4973657;28;10927;-69
2022/10/25 13:31:29;;;;;;;;;0.00;0.00;14.60;99.90;;;;;;4977572;28;10412;-68
2022/10/25 13:34:13;;;;;;;;;0.00;0.00;14.70;99.90;;;;;;4987163;28;10564;-69
2022/10/25 13:36:52;;;;;;;;;0.75;0.00;14.60;99.90;;;;;;4977641;28;10630;-69
2022/10/25 13:39:46;;;;;;;;;0.00;0.00;14.40;99.90;;;;;;4975374;28;10549;-67
2022/10/25 13:42:15;;;;;;;;;0.75;0.00;14.50;99.90;;;;;;4971900;28;12139;-70
2022/10/25 13:44:57;;;;;;;;;0.00;0.00;14.40;99.90;;;;;;4976291;28;11375;-69
2022/10/25 13:47:42;;;;;;;;;1.00;0.00;14.60;99.90;;;;;;4970657;28;11255;-61
2022/10/25 13:50:33;;;;;;;;;0.00;0.00;14.90;99.90;;;;;;4972758;28;10686;-61
2022/10/25 13:53:19;;;;;;;;;0.00;0.00;14.80;99.90;;;;;;4972266;28;10548;-61